Time;durP1;ratioP1;P1;durP2;ratioP2;P2;SDS_P1;SDS_P2;PMS_P1;PMS_P2;Temp;Humidity;BMP_temperature;BMP_pressure;BME280_temperature;BME280_humidity;BME280_pressure;Samples;Min_cycle;Max_cycle;Signal;HPM_P1;HPM_P2
2023/05/18 00:02:06;;;;;;;9.52;2.72;;;15.70;99.90;;;;;;7396448;19;19915;-71
2023/05/18 00:04:33;;;;;;;12.73;2.80;;;15.70;99.90;;;;;;7398622;19;19918;-71
2023/05/18 00:07:02;;;;;;;;;;;15.70;99.90;;;;;;7394456;19;19923;-71
2023/05/18 00:09:32;;;;;;;6.82;2.33;;;15.70;99.90;;;;;;7399055;19;19918;-72
2023/05/18 00:12:00;;;;;;;8.63;2.15;;;15.70;99.90;;;;;;7397707;19;19939;-71
2023/05/18 00:14:27;;;;;;;11.52;3.30;;;15.70;99.90;;;;;;7394017;19;20327;-73
2023/05/18 00:16:53;;;;;;;5.85;2.05;;;15.70;99.90;;;;;;7400976;19;20773;-71
2023/05/18 00:19:20;;;;;;;11.02;2.85;;;15.70;99.90;;;;;;7398227;19;20569;-72
2023/05/18 00:21:46;;;;;;;;;;;15.70;99.90;;;;;;7401789;19;19919;-70
2023/05/18 00:24:15;;;;;;;10.15;2.90;;;15.70;99.90;;;;;;7396456;19;19934;-71
2023/05/18 00:26:44;;;;;;;15.13;4.20;;;15.70;99.90;;;;;;7397393;19;19918;-70
2023/05/18 00:29:10;;;;;;;13.18;2.70;;;15.60;99.90;;;;;;7396649;19;19926;-70
2023/05/18 00:31:37;;;;;;;10.70;2.95;;;15.70;99.90;;;;;;7403813;19;20610;-70
2023/05/18 00:34:12;;;;;;;11.32;3.05;;;15.60;99.90;;;;;;7400563;19;19910;-71
2023/05/18 00:36:39;;;;;;;11.13;3.42;;;15.60;99.90;;;;;;7404457;19;19918;-71
2023/05/18 00:39:06;;;;;;;10.25;3.00;;;15.60;99.90;;;;;;7404438;19;19930;-71
2023/05/18 00:41:32;;;;;;;9.32;2.35;;;15.60;99.90;;;;;;7349280;19;19915;-71
2023/05/18 00:43:58;;;;;;;7.90;2.95;;;15.60;99.90;;;;;;7402899;19;19933;-71
2023/05/18 00:46:25;;;;;;;9.52;2.83;;;15.60;99.90;;;;;;7399354;19;19926;-71
2023/05/18 00:48:55;;;;;;;8.35;2.53;;;15.70;99.90;;;;;;7397089;19;19925;-71
2023/05/18 00:51:22;;;;;;;7.13;2.30;;;15.60;99.90;;;;;;7400216;19;19940;-71
2023/05/18 00:53:52;;;;;;;;;;;15.70;99.90;;;;;;7404181;19;19926;-71
2023/05/18 00:56:20;;;;;;;10.10;2.97;;;15.70;99.60;;;;;;7397001;19;19922;-71
2023/05/18 00:58:46;;;;;;;5.20;2.05;;;15.70;99.90;;;;;;7403566;19;19911;-71
2023/05/18 01:01:12;;;;;;;7.75;2.28;;;15.70;97.40;;;;;;7405456;19;19939;-71
2023/05/18 01:03:40;;;;;;;8.25;2.20;;;15.70;96.80;;;;;;7399261;19;19926;-71
2023/05/18 01:06:06;;;;;;;9.65;2.05;;;15.80;95.50;;;;;;7403325;19;20619;-72
2023/05/18 01:08:33;;;;;;;6.57;2.17;;;15.70;93.00;;;;;;7402124;19;21308;-70
2023/05/18 01:11:02;;;;;;;9.55;2.38;;;15.80;92.00;;;;;;7400741;19;20266;-71
2023/05/18 01:13:42;;;;;;;8.10;2.30;;;15.80;91.10;;;;;;7404587;19;19915;-72
2023/05/18 01:16:14;;;;;;;7.75;1.55;;;15.80;90.10;;;;;;7398489;19;20326;-73
2023/05/18 01:18:57;;;;;;;4.90;1.30;;;16.00;82.70;;;;;;7402357;19;19919;-70
2023/05/18 01:21:48;;;;;;;6.68;1.77;;;16.10;82.90;;;;;;7401291;19;19939;-72
2023/05/18 01:24:29;;;;;;;7.05;1.77;;;16.00;83.40;;;;;;7401453;19;19941;-72
2023/05/18 01:26:58;;;;;;;6.65;2.00;;;16.00;84.70;;;;;;7351244;19;19934;-71
2023/05/18 01:29:28;;;;;;;6.65;1.95;;;16.00;85.50;;;;;;7399033;19;20335;-71
2023/05/18 01:31:54;;;;;;;4.88;1.63;;;15.90;84.60;;;;;;7399888;19;19951;-70
2023/05/18 01:34:20;;;;;;;9.23;2.75;;;15.90;84.70;;;;;;7398110;19;19950;-71
2023/05/18 01:36:45;;;;;;;7.13;2.17;;;15.90;84.40;;;;;;7403305;19;20254;-71
2023/05/18 01:39:11;;;;;;;5.20;2.00;;;16.00;84.00;;;;;;7396940;19;19922;-73
2023/05/18 01:41:49;;;;;;;8.23;1.95;;;16.00;84.20;;;;;;7400480;19;19919;-71
2023/05/18 01:44:27;;;;;;;10.27;2.13;;;16.00;84.00;;;;;;7402207;19;19935;-71
2023/05/18 01:47:13;;;;;;;5.20;1.75;;;16.00;83.60;;;;;;7397064;19;19949;-71
2023/05/18 01:50:01;;;;;;;7.55;2.00;;;16.00;81.70;;;;;;7398855;19;19911;-71
2023/05/18 01:52:47;;;;;;;5.47;2.05;;;16.10;80.50;;;;;;7403462;19;20400;-71
2023/05/18 01:55:15;;;;;;;5.85;2.00;;;16.20;82.00;;;;;;7398968;19;19990;-70
2023/05/18 01:57:44;;;;;;;10.15;1.80;;;16.20;81.20;;;;;;7400900;19;20001;-70
2023/05/18 02:00:11;;;;;;;5.85;1.60;;;16.30;80.40;;;;;;7398280;19;20335;-70
2023/05/18 02:02:38;;;;;;;9.32;1.95;;;16.20;76.80;;;;;;7400420;19;20323;-71
2023/05/18 02:05:06;;;;;;;8.52;2.30;;;16.20;78.50;;;;;;7354261;19;19911;-71
2023/05/18 02:07:32;;;;;;;7.78;1.83;;;16.10;80.30;;;;;;7397113;19;19914;-70
2023/05/18 02:09:57;;;;;;;7.70;1.80;;;16.10;79.40;;;;;;7402113;19;19954;-71
2023/05/18 02:12:23;;;;;;;5.03;1.98;;;16.10;81.20;;;;;;7398744;19;19935;-69
2023/05/18 02:14:49;;;;;;;6.15;2.25;;;16.00;80.40;;;;;;7400630;19;19915;-70
2023/05/18 02:17:15;;;;;;;6.30;2.40;;;15.90;80.90;;;;;;7399597;19;20346;-71
2023/05/18 02:19:41;;;;;;;8.15;1.70;;;15.90;81.70;;;;;;7348423;19;19918;-70
2023/05/18 02:22:07;;;;;;;8.52;2.00;;;15.90;80.40;;;;;;7394572;19;19922;-70
2023/05/18 02:24:33;;;;;;;7.90;2.72;;;15.80;80.70;;;;;;7349419;19;19914;-70
2023/05/18 02:27:00;;;;;;;9.80;2.10;;;15.70;82.20;;;;;;7403349;19;19927;-70
2023/05/18 02:29:26;;;;;;;10.10;2.00;;;15.70;83.10;;;;;;7396416;19;19921;-71
2023/05/18 02:31:52;;;;;;;10.88;2.47;;;15.60;88.10;;;;;;7398893;19;20804;-70
2023/05/18 02:34:18;;;;;;;9.20;4.03;;;15.50;90.80;;;;;;7399127;19;19922;-71
2023/05/18 02:36:44;;;;;;;9.43;2.90;;;15.50;92.90;;;;;;7399138;19;19931;-70
2023/05/18 02:39:11;;;;;;;7.80;3.08;;;15.40;92.40;;;;;;7400561;19;19911;-70
2023/05/18 02:41:37;;;;;;;10.73;3.35;;;15.40;93.80;;;;;;7398356;19;19923;-71
2023/05/18 02:44:04;;;;;;;10.85;3.35;;;15.30;96.50;;;;;;7398620;19;19948;-72
2023/05/18 02:46:32;;;;;;;12.13;3.88;;;15.30;98.50;;;;;;7402076;19;20434;-70
2023/05/18 02:48:58;;;;;;;10.48;2.88;;;15.20;98.40;;;;;;7398254;19;19918;-71
2023/05/18 02:51:24;;;;;;;11.70;3.38;;;15.10;98.80;;;;;;7396990;19;19935;-70
2023/05/18 02:53:50;;;;;;;12.02;2.92;;;15.20;99.10;;;;;;7401897;19;19918;-70
2023/05/18 02:56:17;;;;;;;11.05;3.25;;;15.20;98.50;;;;;;7395852;19;19923;-71
2023/05/18 02:58:43;;;;;;;9.80;2.72;;;15.10;98.50;;;;;;7400489;19;19911;-71
2023/05/18 03:01:11;;;;;;;11.68;4.13;;;15.00;99.80;;;;;;7400628;19;19926;-71
2023/05/18 03:03:37;;;;;;;13.13;3.15;;;14.90;99.90;;;;;;7375654;19;20011;-71
2023/05/18 03:06:08;;;;;;;11.82;3.30;;;15.00;99.90;;;;;;7396704;19;19934;-70
2023/05/18 03:08:35;;;;;;;9.98;3.75;;;15.10;99.90;;;;;;7401508;19;19938;-71
2023/05/18 03:11:02;;;;;;;11.40;3.33;;;15.00;99.90;;;;;;7395497;19;19918;-70
2023/05/18 03:13:27;;;;;;;8.70;3.75;;;15.00;99.90;;;;;;7397942;19;20540;-70
2023/05/18 03:15:55;;;;;;;9.75;3.28;;;15.00;99.90;;;;;;7396838;19;19915;-71
2023/05/18 03:18:21;;;;;;;9.30;3.50;;;14.90;99.90;;;;;;7397424;19;20035;-70
2023/05/18 03:20:50;;;;;;;9.52;3.60;;;14.90;99.90;;;;;;7400984;19;19915;-71
2023/05/18 03:23:18;;;;;;;9.68;3.35;;;14.90;99.50;;;;;;7377640;19;20355;-70
2023/05/18 03:25:44;;;;;;;8.23;2.30;;;14.80;99.50;;;;;;7400065;19;20380;-70
2023/05/18 03:28:10;;;;;;;9.95;3.22;;;14.80;99.60;;;;;;7394731;19;19918;-71
2023/05/18 03:30:36;;;;;;;8.77;2.97;;;14.80;99.50;;;;;;7402444;19;20665;-71
2023/05/18 03:33:02;;;;;;;9.93;2.92;;;14.80;99.60;;;;;;7398834;19;20277;-71
2023/05/18 03:35:28;;;;;;;7.57;3.22;;;14.80;99.50;;;;;;7400164;19;20316;-71
2023/05/18 03:37:54;;;;;;;9.63;3.65;;;14.90;99.90;;;;;;7362793;19;19918;-70
2023/05/18 03:40:23;;;;;;;8.55;3.63;;;14.90;99.30;;;;;;7396342;19;19915;-70
2023/05/18 03:42:52;;;;;;;8.27;3.05;;;14.90;99.20;;;;;;7401728;19;19973;-70
2023/05/18 03:45:18;;;;;;;10.35;3.85;;;14.90;98.90;;;;;;7395347;19;19975;-72
2023/05/18 03:47:44;;;;;;;10.15;2.75;;;15.00;98.90;;;;;;7398542;19;19929;-71
2023/05/18 03:50:10;;;;;;;10.20;3.00;;;15.00;98.90;;;;;;7392471;19;20343;-71
2023/05/18 03:52:36;;;;;;;10.52;3.40;;;15.00;98.90;;;;;;7396784;19;19940;-71
2023/05/18 03:55:04;;;;;;;11.85;3.65;;;15.00;98.80;;;;;;7372706;19;19914;-70
2023/05/18 03:57:30;;;;;;;10.35;2.72;;;15.00;98.90;;;;;;7399279;19;19942;-71
2023/05/18 03:59:57;;;;;;;8.38;3.55;;;15.00;99.00;;;;;;7398141;19;20229;-70
2023/05/18 04:02:24;;;;;;;11.38;3.40;;;15.10;99.50;;;;;;7397809;19;20339;-71
2023/05/18 04:04:52;;;;;;;13.00;3.58;;;15.00;99.90;;;;;;7397108;19;20278;-71
2023/05/18 04:07:23;;;;;;;12.38;4.50;;;14.90;99.90;;;;;;7397523;19;19918;-71
2023/05/18 04:09:49;;;;;;;11.57;3.65;;;14.90;99.90;;;;;;7399418;19;19915;-70
2023/05/18 04:12:15;;;;;;;12.07;3.85;;;14.90;99.90;;;;;;7394552;19;19925;-71
2023/05/18 04:14:41;;;;;;;11.10;4.43;;;14.90;99.90;;;;;;7398372;19;19944;-70
2023/05/18 04:17:08;;;;;;;13.27;4.55;;;14.80;99.90;;;;;;7399189;19;19915;-71
2023/05/18 04:19:35;;;;;;;12.95;3.95;;;14.90;99.90;;;;;;7393344;19;19937;-70
2023/05/18 04:22:04;;;;;;;10.68;4.60;;;14.80;99.90;;;;;;7399233;19;19923;-72
2023/05/18 04:24:31;;;;;;;14.50;4.78;;;14.70;99.90;;;;;;7365094;19;19919;-71
2023/05/18 04:26:59;;;;;;;11.45;3.67;;;14.60;99.90;;;;;;7398699;19;19943;-70
2023/05/18 04:29:26;;;;;;;14.38;3.92;;;14.60;99.90;;;;;;7392217;19;20053;-70
2023/05/18 04:31:58;;;;;;;8.52;3.90;;;14.60;99.90;;;;;;7396071;19;19922;-70
2023/05/18 04:34:25;;;;;;;12.63;3.80;;;14.50;99.90;;;;;;7392209;19;20820;-71
2023/05/18 04:36:54;;;;;;;15.90;4.38;;;14.50;99.90;;;;;;7394392;19;19918;-70
2023/05/18 04:39:22;;;;;;;15.48;4.43;;;14.50;99.90;;;;;;7393879;19;20002;-70
2023/05/18 04:41:58;;;;;;;7.90;3.47;;;14.40;99.90;;;;;;7396128;19;20943;-71
2023/05/18 04:44:28;;;;;;;9.52;4.13;;;14.40;99.90;;;;;;7393394;19;19937;-73
2023/05/18 04:46:54;;;;;;;12.25;4.10;;;14.40;99.90;;;;;;7396817;19;19942;-71
2023/05/18 04:49:24;;;;;;;11.80;3.72;;;14.30;99.90;;;;;;7397135;19;19978;-71
2023/05/18 04:51:54;;;;;;;9.65;3.40;;;14.40;99.90;;;;;;7397004;19;19925;-71
2023/05/18 04:54:24;;;;;;;9.00;3.88;;;14.40;99.90;;;;;;7398403;19;20401;-71
2023/05/18 04:56:50;;;;;;;11.07;3.70;;;14.40;99.90;;;;;;7398875;19;19942;-71
2023/05/18 04:59:17;;;;;;;10.65;3.53;;;14.40;99.90;;;;;;7372319;19;19917;-70
2023/05/18 05:01:43;;;;;;;8.75;4.18;;;14.40;99.90;;;;;;7397038;19;19939;-71
2023/05/18 05:04:09;;;;;;;10.23;3.60;;;14.40;99.90;;;;;;7374583;19;19919;-71
2023/05/18 05:06:35;;;;;;;13.70;4.88;;;14.40;99.90;;;;;;7397737;19;20343;-71
2023/05/18 05:09:01;;;;;;;10.07;3.55;;;14.50;99.90;;;;;;7366101;19;19946;-71
2023/05/18 05:11:26;;;;;;;8.95;4.18;;;14.50;99.90;;;;;;7397093;19;19927;-71
2023/05/18 05:13:52;;;;;;;11.90;4.70;;;14.50;99.90;;;;;;7399346;19;19927;-71
2023/05/18 05:16:18;;;;;;;11.32;4.55;;;14.60;99.90;;;;;;7399639;19;19922;-72
2023/05/18 05:18:44;;;;;;;16.35;3.75;;;14.60;99.90;;;;;;7405992;19;20349;-72
2023/05/18 05:21:10;;;;;;;11.57;3.20;;;14.70;99.90;;;;;;7403379;19;20343;-71
2023/05/18 05:23:35;;;;;;;7.07;2.95;;;14.70;99.90;;;;;;7403419;19;19925;-72
2023/05/18 05:26:01;;;;;;;10.13;4.03;;;14.80;99.80;;;;;;7401660;19;19914;-72
2023/05/18 05:28:27;;;;;;;12.77;2.55;;;14.90;97.40;;;;;;7401084;19;19944;-72
2023/05/18 05:30:53;;;;;;;9.80;2.78;;;14.90;96.90;;;;;;7401794;19;19990;-73
2023/05/18 05:33:19;;;;;;;10.63;2.70;;;15.00;95.40;;;;;;7401800;19;19942;-72
2023/05/18 05:35:45;;;;;;;7.85;2.65;;;15.10;94.20;;;;;;7404090;19;19943;-73
2023/05/18 05:38:11;;;;;;;7.63;2.58;;;15.20;93.60;;;;;;7402889;19;19930;-72
2023/05/18 05:40:36;;;;;;;7.75;2.88;;;15.20;92.30;;;;;;7405203;19;20354;-72
2023/05/18 05:43:04;;;;;;;10.45;2.45;;;15.20;92.40;;;;;;7401995;19;19918;-74
2023/05/18 05:45:30;;;;;;;9.07;2.50;;;15.40;92.30;;;;;;7402236;19;19922;-72
2023/05/18 05:47:56;;;;;;;9.52;2.67;;;15.50;92.80;;;;;;7404492;19;19914;-71
2023/05/18 05:50:22;;;;;;;8.82;2.58;;;15.50;91.10;;;;;;7402896;19;19939;-72
2023/05/18 05:52:48;;;;;;;10.13;2.53;;;15.60;91.30;;;;;;7401032;19;19911;-72
2023/05/18 05:55:14;;;;;;;8.15;2.38;;;15.60;91.20;;;;;;7399170;19;20880;-72
2023/05/18 05:57:41;;;;;;;8.88;3.30;;;15.70;91.80;;;;;;7401100;19;19950;-72
2023/05/18 06:00:09;;;;;;;8.23;2.38;;;15.70;90.50;;;;;;7397953;19;19915;-73
2023/05/18 06:02:35;;;;;;;6.13;2.17;;;15.80;84.00;;;;;;7404467;19;19914;-72
2023/05/18 06:05:01;;;;;;;9.70;2.40;;;15.80;82.30;;;;;;7401958;19;20335;-72
2023/05/18 06:07:28;;;;;;;7.10;2.33;;;15.80;85.10;;;;;;7399775;19;19922;-72
2023/05/18 06:09:54;;;;;;;7.60;2.10;;;15.90;84.00;;;;;;7404920;19;19926;-72
2023/05/18 06:12:20;;;;;;;7.45;2.83;;;15.90;85.50;;;;;;7395193;19;19933;-72
2023/05/18 06:14:46;;;;;;;10.10;3.67;;;16.00;89.70;;;;;;7400762;19;19979;-74
2023/05/18 06:17:12;;;;;;;11.65;3.88;;;16.10;93.90;;;;;;7400099;19;19910;-73
2023/05/18 06:19:37;;;;;;;9.80;3.90;;;16.10;94.80;;;;;;7400884;19;19919;-72
2023/05/18 06:22:03;;;;;;;10.93;3.78;;;16.10;92.60;;;;;;7395901;19;19919;-70
2023/05/18 06:24:29;;;;;;;10.68;3.58;;;16.20;93.50;;;;;;7401030;19;19990;-72
2023/05/18 06:26:55;;;;;;;13.65;4.10;;;16.30;93.40;;;;;;7398514;19;19918;-71
2023/05/18 06:29:21;;;;;;;12.18;4.18;;;16.30;93.70;;;;;;7378770;19;20288;-71
2023/05/18 06:31:47;;;;;;;10.63;4.57;;;16.30;94.00;;;;;;7402319;19;19925;-72
2023/05/18 06:34:13;;;;;;;11.05;4.13;;;16.30;94.30;;;;;;7400065;19;19926;-70
2023/05/18 06:36:39;;;;;;;11.35;4.03;;;16.30;92.70;;;;;;7403303;19;19918;-73
2023/05/18 06:39:05;;;;;;;7.65;2.55;;;16.20;91.90;;;;;;7376635;19;20228;-72
2023/05/18 06:41:33;;;;;;;9.10;2.97;;;16.30;84.90;;;;;;7401685;19;19982;-71
2023/05/18 06:44:00;;;;;;;10.20;2.97;;;16.30;84.10;;;;;;7401360;19;19914;-73
2023/05/18 06:46:26;;;;;;;10.07;2.85;;;16.30;84.50;;;;;;7344619;19;19922;-72
2023/05/18 06:48:52;;;;;;;11.95;3.60;;;16.30;84.70;;;;;;7394204;19;19922;-72
2023/05/18 06:51:18;;;;;;;10.60;3.58;;;16.40;87.60;;;;;;7398529;19;20263;-73
2023/05/18 06:53:45;;;;;;;9.77;3.72;;;16.30;88.20;;;;;;7381161;19;19929;-72
2023/05/18 06:56:11;;;;;;;8.82;3.97;;;16.40;87.40;;;;;;7400125;19;19978;-73
2023/05/18 06:58:38;;;;;;;11.20;4.00;;;16.40;86.80;;;;;;7400464;19;19934;-72
2023/05/18 07:01:04;;;;;;;11.18;4.40;;;16.50;86.90;;;;;;7398272;19;20394;-72
2023/05/18 07:03:31;;;;;;;10.95;3.67;;;16.40;87.50;;;;;;7400680;19;19922;-72
2023/05/18 07:05:57;;;;;;;18.90;4.18;;;16.50;87.00;;;;;;7382917;19;19911;-72
2023/05/18 07:08:24;;;;;;;10.73;3.50;;;16.50;86.90;;;;;;7396785;19;19927;-73
2023/05/18 07:10:50;;;;;;;8.98;3.50;;;16.50;87.70;;;;;;7394292;19;19987;-71
2023/05/18 07:13:16;;;;;;;7.18;3.72;;;16.70;87.00;;;;;;7395672;19;19921;-72
2023/05/18 07:15:42;;;;;;;11.05;3.65;;;16.60;84.70;;;;;;7399095;19;19914;-73
2023/05/18 07:18:07;;;;;;;11.77;3.95;;;16.70;84.40;;;;;;7380482;19;19939;-73
2023/05/18 07:20:33;;;;;;;12.05;3.33;;;16.60;84.30;;;;;;7397822;19;19927;-72
2023/05/18 07:22:59;;;;;;;8.27;3.58;;;16.70;84.20;;;;;;7401376;19;19919;-73
2023/05/18 07:25:26;;;;;;;10.05;3.25;;;16.90;84.00;;;;;;7395866;19;19932;-71
2023/05/18 07:27:53;;;;;;;11.05;3.65;;;16.90;83.40;;;;;;7401048;19;19932;-72
2023/05/18 07:30:22;;;;;;;11.82;3.50;;;17.10;82.70;;;;;;7383553;19;19910;-72
2023/05/18 07:32:49;;;;;;;11.68;3.53;;;17.30;81.00;;;;;;7396917;19;19907;-72
2023/05/18 07:35:18;;;;;;;12.70;3.53;;;17.40;80.90;;;;;;7401372;19;19928;-72
2023/05/18 07:37:44;;;;;;;7.30;3.50;;;17.40;81.00;;;;;;7401934;19;20439;-73
2023/05/18 07:40:10;;;;;;;10.43;3.55;;;17.50;80.40;;;;;;7395991;19;19930;-72
2023/05/18 07:42:40;;;;;;;10.73;3.75;;;17.30;80.60;;;;;;7402770;19;20455;-73
2023/05/18 07:45:07;;;;;;;10.25;4.05;;;17.10;81.20;;;;;;7395343;19;20751;-73
2023/05/18 07:47:33;;;;;;;11.73;3.90;;;17.10;81.00;;;;;;7401011;19;20299;-72
2023/05/18 07:49:59;;;;;;;10.38;3.67;;;17.20;80.40;;;;;;7399166;19;20010;-72
2023/05/18 07:52:24;;;;;;;9.27;3.88;;;17.60;79.60;;;;;;7400505;19;19998;-73
2023/05/18 07:54:52;;;;;;;8.25;3.35;;;17.60;78.40;;;;;;7397793;19;19922;-72
2023/05/18 07:57:18;;;;;;;13.55;3.63;;;18.00;77.00;;;;;;7398542;19;19918;-72
2023/05/18 07:59:44;;;;;;;7.43;3.08;;;18.10;76.10;;;;;;7397474;19;19978;-72
2023/05/18 08:02:10;;;;;;;8.88;3.20;;;18.40;74.40;;;;;;7395855;19;19935;-72
2023/05/18 08:04:35;;;;;;;9.48;3.13;;;18.30;73.30;;;;;;7396744;19;19927;-72
2023/05/18 08:07:02;;;;;;;11.18;3.75;;;18.40;73.60;;;;;;7368169;19;19918;-72
2023/05/18 08:09:27;;;;;;;10.15;3.53;;;18.30;73.90;;;;;;7395763;19;20023;-72
2023/05/18 08:11:53;;;;;;;11.52;3.88;;;18.00;74.70;;;;;;7401849;19;19922;-72
2023/05/18 08:14:20;;;;;;;11.02;3.90;;;18.20;74.80;;;;;;7396281;19;19918;-73
2023/05/18 08:16:46;;;;;;;11.30;3.63;;;18.70;73.40;;;;;;7399664;19;19926;-72
2023/05/18 08:19:11;;;;;;;10.57;3.60;;;19.10;72.20;;;;;;7398653;19;19922;-73
2023/05/18 08:21:37;;;;;;;14.30;4.10;;;19.50;71.30;;;;;;7397640;19;19942;-73
2023/05/18 08:24:03;;;;;;;10.68;3.53;;;19.80;70.00;;;;;;7395540;19;19930;-72
2023/05/18 08:26:29;;;;;;;10.52;3.97;;;19.60;69.70;;;;;;7401510;19;19925;-73
2023/05/18 08:28:55;;;;;;;9.98;4.13;;;18.80;70.70;;;;;;7395792;19;19941;-74
2023/05/18 08:31:21;;;;;;;13.13;4.30;;;18.40;72.10;;;;;;7397565;19;20483;-72
2023/05/18 08:33:47;;;;;;;7.90;3.50;;;18.40;73.00;;;;;;7401736;19;19938;-72
2023/05/18 08:36:13;;;;;;;10.25;4.47;;;18.30;73.30;;;;;;7397708;19;19911;-73
2023/05/18 08:38:39;;;;;;;12.55;4.38;;;19.20;73.40;;;;;;7400185;19;19946;-72
2023/05/18 08:41:15;;;;;;;10.10;4.70;;;19.90;68.60;;;;;;7399753;19;19938;-73
2023/05/18 08:43:45;;;;;;;9.43;4.20;;;20.20;68.00;;;;;;7400385;19;19915;-72
2023/05/18 08:46:17;;;;;;;12.52;5.28;;;19.80;67.00;;;;;;7398564;19;20250;-72
2023/05/18 08:48:47;;;;;;;12.15;4.10;;;19.40;68.20;;;;;;7398382;19;20357;-73
2023/05/18 08:51:18;;;;;;;13.40;4.55;;;20.00;67.30;;;;;;7399776;19;19977;-72
2023/05/18 08:53:44;;;;;;;11.98;4.95;;;21.10;64.90;;;;;;7407333;19;20022;-73
2023/05/18 08:56:11;;;;;;;10.10;4.05;;;20.90;63.80;;;;;;7404720;19;19918;-71
2023/05/18 08:58:46;;;;;;;9.65;3.72;;;21.00;63.70;;;;;;7406622;19;19918;-72
2023/05/18 09:01:13;;;;;;;8.93;3.45;;;21.10;62.80;;;;;;7403057;19;20283;-71
2023/05/18 09:03:40;;;;;;;12.75;3.55;;;20.40;63.40;;;;;;7404436;19;19921;-72
2023/05/18 09:06:07;;;;;;;9.40;3.83;;;19.60;65.50;;;;;;7404443;19;20275;-72
2023/05/18 09:08:34;;;;;;;12.75;4.22;;;19.90;66.70;;;;;;7381387;19;19919;-72
2023/05/18 09:11:02;;;;;;;10.13;3.58;;;19.40;67.30;;;;;;7401721;19;20333;-72
2023/05/18 09:13:28;;;;;;;7.10;3.25;;;19.20;67.70;;;;;;7403444;19;19911;-73
2023/05/18 09:15:54;;;;;;;;;;;19.70;67.00;;;;;;7407928;19;19918;-73
2023/05/18 09:18:20;;;;;;;6.53;2.67;;;20.60;64.90;;;;;;7401503;19;19928;-73
2023/05/18 09:20:46;;;;;;;8.57;3.22;;;20.50;62.30;;;;;;7406162;19;19943;-73
2023/05/18 09:23:12;;;;;;;8.77;3.13;;;21.10;62.00;;;;;;7402535;19;19929;-72
2023/05/18 09:25:44;;;;;;;9.05;2.70;;;22.60;58.40;;;;;;7405359;19;19997;-72
2023/05/18 09:28:15;;;;;;;12.35;3.55;;;22.10;58.60;;;;;;7402151;19;19915;-72
2023/05/18 09:30:44;;;;;;;10.50;3.40;;;21.70;60.10;;;;;;7400336;19;19915;-72
2023/05/18 09:33:17;;;;;;;8.95;2.88;;;21.40;57.60;;;;;;7402462;19;19942;-72
2023/05/18 09:35:46;;;;;;;7.57;2.90;;;20.70;61.10;;;;;;7405770;19;19915;-73
2023/05/18 09:38:16;;;;;;;8.35;3.25;;;20.60;61.50;;;;;;7373358;19;20427;-73
2023/05/18 09:40:45;;;;;;;9.32;2.85;;;19.90;62.20;;;;;;7403090;19;19999;-72
2023/05/18 09:43:11;;;;;;;7.78;3.42;;;19.80;64.10;;;;;;7403575;19;19926;-73
2023/05/18 09:45:48;;;;;;;11.85;3.35;;;19.80;64.30;;;;;;7402882;19;19926;-73
2023/05/18 09:48:15;;;;;;;9.82;3.50;;;21.20;60.80;;;;;;7400792;19;20656;-73
2023/05/18 09:50:45;;;;;;;10.40;3.63;;;22.80;58.30;;;;;;7405572;19;19958;-74
2023/05/18 09:53:11;;;;;;;;;;;22.60;57.00;;;;;;7404070;19;19940;-73
2023/05/18 09:55:45;;;;;;;9.10;2.83;;;22.60;56.50;;;;;;7405149;19;19946;-73
2023/05/18 09:58:11;;;;;;;9.38;3.17;;;21.90;57.80;;;;;;7404633;19;19915;-74
2023/05/18 10:00:41;;;;;;;8.80;2.85;;;23.50;55.00;;;;;;7404508;19;19930;-73
2023/05/18 10:03:17;;;;;;;7.13;3.13;;;23.20;54.30;;;;;;7402144;19;19911;-73
2023/05/18 10:05:42;;;;;;;6.97;3.05;;;23.20;53.80;;;;;;7405679;19;19941;-73
2023/05/18 10:08:10;;;;;;;8.50;3.60;;;22.90;54.20;;;;;;7402155;19;19914;-72
2023/05/18 10:10:38;;;;;;;15.52;3.95;;;23.40;52.90;;;;;;7403932;19;19926;-73
2023/05/18 10:13:04;;;;;;;7.60;3.63;;;24.00;51.80;;;;;;7400497;19;19927;-72
2023/05/18 10:15:32;;;;;;;8.63;3.42;;;24.00;51.40;;;;;;7403287;19;19914;-73
2023/05/18 10:18:01;;;;;;;8.55;3.55;;;23.20;52.50;;;;;;7403238;19;19922;-73
2023/05/18 10:20:27;;;;;;;10.63;3.15;;;23.50;52.00;;;;;;7400253;19;19986;-73
2023/05/18 10:22:54;;;;;;;8.40;4.28;;;23.70;52.00;;;;;;7401044;19;20251;-73
2023/05/18 10:25:25;;;;;;;7.72;4.45;;;24.90;49.40;;;;;;7398636;19;20350;-74
2023/05/18 10:27:56;;;;;;;6.95;3.28;;;24.90;49.10;;;;;;7402124;19;20339;-73
2023/05/18 10:30:22;;;;;;;7.20;2.67;;;24.90;48.40;;;;;;7399961;19;21037;-72
2023/05/18 10:32:50;;;;;;;9.10;3.50;;;24.70;47.80;;;;;;7404488;19;20009;-72
2023/05/18 10:35:17;;;;;;;5.68;2.83;;;23.90;48.40;;;;;;7400123;19;19919;-72
2023/05/18 10:37:47;;;;;;;8.18;3.63;;;24.60;48.60;;;;;;7370994;19;20279;-72
2023/05/18 10:40:14;;;;;;;8.25;2.83;;;22.90;50.50;;;;;;7399281;19;19930;-72
2023/05/18 10:42:41;;;;;;;6.22;3.38;;;22.40;51.60;;;;;;7404383;19;19911;-72
2023/05/18 10:45:09;;;;;;;6.28;3.00;;;22.80;51.10;;;;;;7396944;19;19939;-73
2023/05/18 10:47:41;;;;;;;7.35;2.83;;;22.20;51.80;;;;;;7403138;19;19927;-73
2023/05/18 10:50:08;;;;;;;8.38;2.90;;;21.50;53.20;;;;;;7398560;19;19982;-72
2023/05/18 10:52:36;;;;;;;8.75;3.35;;;21.30;54.60;;;;;;7401605;19;19919;-72
2023/05/18 10:55:03;;;;;;;9.20;2.65;;;21.00;54.00;;;;;;7401082;19;19953;-71
2023/05/18 10:57:39;;;;;;;7.32;2.47;;;21.60;53.30;;;;;;7402112;19;19991;-73
2023/05/18 11:00:08;;;;;;;8.90;2.60;;;21.30;53.10;;;;;;7400217;19;19931;-73
2023/05/18 11:02:35;;;;;;;7.97;3.40;;;21.60;53.20;;;;;;7402056;19;19943;-72
2023/05/18 11:05:05;;;;;;;7.45;2.78;;;22.60;51.00;;;;;;7402967;19;19929;-73
2023/05/18 11:07:32;;;;;;;8.57;2.83;;;22.20;51.50;;;;;;7401743;19;19986;-73
2023/05/18 11:10:02;;;;;;;7.20;2.42;;;22.20;52.40;;;;;;7400050;19;19906;-73
2023/05/18 11:12:32;;;;;;;9.57;2.80;;;21.70;52.20;;;;;;7397778;19;19919;-73
2023/05/18 11:14:59;;;;;;;7.95;2.45;;;20.30;54.50;;;;;;7400108;19;19917;-73
2023/05/18 11:17:28;;;;;;;7.75;2.58;;;19.70;55.00;;;;;;7398513;19;19921;-72
2023/05/18 11:20:03;;;;;;;7.63;2.83;;;19.60;55.90;;;;;;7403047;19;19978;-73
2023/05/18 11:22:47;;;;;;;6.10;2.53;;;19.60;56.50;;;;;;7398779;19;19922;-73
2023/05/18 11:25:31;;;;;;;8.63;2.85;;;19.20;58.40;;;;;;7402678;19;19922;-73
2023/05/18 11:28:05;;;;;;;10.48;3.10;;;19.60;58.70;;;;;;7398435;19;20639;-73
2023/05/18 11:30:39;;;;;;;6.97;3.03;;;19.80;58.50;;;;;;7396965;19;19922;-72
2023/05/18 11:33:28;;;;;;;10.00;3.20;;;20.10;58.10;;;;;;7401031;19;20319;-73
2023/05/18 11:36:02;;;;;;;7.03;2.60;;;19.90;59.70;;;;;;7402486;19;19915;-73
2023/05/18 11:38:55;;;;;;;8.40;3.03;;;21.40;56.10;;;;;;7402058;19;20271;-72
2023/05/18 11:41:40;;;;;;;6.05;2.88;;;21.50;54.80;;;;;;7398022;19;19925;-72
2023/05/18 11:44:15;;;;;;;10.70;3.03;;;21.60;55.10;;;;;;7382523;19;19915;-73
2023/05/18 11:47:02;;;;;;;8.90;3.00;;;21.10;56.20;;;;;;7391101;19;20352;-71
2023/05/18 11:49:35;;;;;;;8.43;2.90;;;21.10;56.60;;;;;;7391101;19;20421;-72
2023/05/18 11:52:17;;;;;;;6.35;2.85;;;20.50;59.30;;;;;;7394658;19;19926;-73
2023/05/18 11:54:51;;;;;;;7.95;2.97;;;19.60;61.50;;;;;;7384013;19;19918;-71
2023/05/18 11:57:19;;;;;;;8.40;2.75;;;19.40;63.10;;;;;;7384440;19;19975;-73
2023/05/18 11:59:54;;;;;;;6.32;2.95;;;19.00;64.60;;;;;;7391772;19;19921;-73
2023/05/18 12:02:22;;;;;;;8.23;3.40;;;18.90;66.10;;;;;;7397280;19;19923;-73
2023/05/18 12:04:52;;;;;;;9.48;3.40;;;18.60;67.20;;;;;;7399667;19;19918;-73
2023/05/18 12:07:18;;;;;;;6.97;2.58;;;18.40;68.50;;;;;;7397170;19;19946;-73
2023/05/18 12:09:46;;;;;;;8.55;2.95;;;18.40;66.80;;;;;;7399788;19;19990;-72
2023/05/18 12:12:16;;;;;;;7.40;3.08;;;18.60;66.90;;;;;;7397244;19;19925;-72
2023/05/18 12:14:43;;;;;;;8.48;2.90;;;19.00;66.40;;;;;;7400713;19;19913;-73
2023/05/18 12:17:10;;;;;;;8.75;3.42;;;19.00;66.50;;;;;;7367883;19;19918;-73
2023/05/18 12:19:37;;;;;;;7.80;2.92;;;18.90;67.20;;;;;;7400271;19;19948;-73
2023/05/18 12:22:04;;;;;;;8.85;3.65;;;19.20;67.70;;;;;;7400308;19;19919;-73
2023/05/18 12:24:31;;;;;;;8.88;3.50;;;19.30;67.30;;;;;;7400493;19;19934;-73
2023/05/18 12:27:03;;;;;;;8.20;2.90;;;19.00;66.60;;;;;;7407494;19;19922;-73
2023/05/18 12:29:29;;;;;;;7.60;3.25;;;19.40;67.00;;;;;;7404017;19;19914;-73
2023/05/18 12:31:55;;;;;;;8.70;3.83;;;19.50;66.80;;;;;;7405605;19;19922;-72
2023/05/18 12:34:21;;;;;;;7.65;3.45;;;18.70;68.80;;;;;;7403556;19;19934;-73
2023/05/18 12:36:54;;;;;;;8.10;2.85;;;18.60;70.40;;;;;;7402813;19;19910;-72
2023/05/18 12:39:21;;;;;;;9.70;3.20;;;19.00;69.60;;;;;;7397122;19;19951;-72
2023/05/18 12:41:47;;;;;;;10.13;3.33;;;18.80;70.50;;;;;;7398955;19;19923;-73
2023/05/18 12:44:13;;;;;;;7.82;3.85;;;18.70;70.80;;;;;;7400531;19;19929;-74
2023/05/18 12:46:42;;;;;;;8.02;3.17;;;18.70;70.70;;;;;;7403698;19;19986;-72
2023/05/18 12:49:08;;;;;;;7.70;3.00;;;19.00;69.70;;;;;;7402249;19;20314;-74